createdAt,value
2023-01-30T00:01:05.033Z,2.05
2023-01-30T00:03:32.644Z,1.90
2023-01-30T00:05:59.705Z,1.91
2023-01-30T00:08:26.818Z,1.86
2023-01-30T00:10:53.896Z,1.97
2023-01-30T00:13:21.056Z,1.91
2023-01-30T00:15:48.459Z,1.86
2023-01-30T00:18:15.901Z,1.77
2023-01-30T00:20:43.089Z,1.75
2023-01-30T00:23:10.212Z,1.67
2023-01-30T00:25:38.079Z,1.57
2023-01-30T00:28:05.297Z,1.69
2023-01-30T00:30:32.374Z,1.75
2023-01-30T00:32:59.535Z,1.88
2023-01-30T00:35:27.174Z,2.05
2023-01-30T00:37:56.206Z,2.05
2023-01-30T00:40:24.931Z,1.88
2023-01-30T00:42:52.144Z,1.89
2023-01-30T00:45:20.404Z,1.89
2023-01-30T00:47:51.175Z,1.87
2023-01-30T00:50:18.290Z,1.92
2023-01-30T00:52:45.392Z,1.87
2023-01-30T00:55:12.498Z,1.97
2023-01-30T00:57:39.637Z,1.88
2023-01-30T01:00:07.879Z,1.83
2023-01-30T01:02:35.506Z,1.89
2023-01-30T01:05:02.664Z,1.94
2023-01-30T01:07:29.870Z,1.89
2023-01-30T01:09:56.952Z,1.92
2023-01-30T01:12:24.051Z,1.94
2023-01-30T01:14:51.130Z,1.99
2023-01-30T01:17:18.323Z,1.97
2023-01-30T01:19:45.625Z,2.00
2023-01-30T01:22:12.738Z,1.95
2023-01-30T01:24:39.900Z,1.90
2023-01-30T01:27:07.076Z,2.05
2023-01-30T01:29:34.208Z,1.98
2023-01-30T01:32:01.315Z,2.10
2023-01-30T01:34:28.515Z,1.89
2023-01-30T01:36:55.617Z,1.82
2023-01-30T01:39:22.956Z,1.88
2023-01-30T01:41:50.469Z,1.87
2023-01-30T01:44:17.963Z,1.79
2023-01-30T01:46:51.553Z,1.82
2023-01-30T01:49:27.721Z,1.76
2023-01-30T01:52:04.388Z,1.79
2023-01-30T01:54:47.263Z,1.94
2023-01-30T01:57:46.791Z,1.72
2023-01-30T02:00:17.241Z,1.73
2023-01-30T02:02:49.727Z,1.75
2023-01-30T02:05:19.452Z,1.85
2023-01-30T02:08:07.676Z,1.80
2023-01-30T02:10:58.578Z,2.02
2023-01-30T02:13:26.167Z,1.78
2023-01-30T02:15:53.618Z,1.76
2023-01-30T02:18:21.070Z,1.71
2023-01-30T02:21:10.011Z,1.67
2023-01-30T02:23:58.483Z,1.64
2023-01-30T02:26:49.974Z,1.71
2023-01-30T02:29:46.500Z,1.67
2023-01-30T02:32:47.929Z,1.74
2023-01-30T02:35:52.909Z,1.76
2023-01-30T02:38:29.017Z,1.70
2023-01-30T02:41:10.195Z,1.74
2023-01-30T02:44:10.146Z,1.74
2023-01-30T02:47:03.818Z,1.77
2023-01-30T02:49:49.475Z,1.79
2023-01-30T02:52:18.198Z,1.84
2023-01-30T02:54:45.543Z,1.83
2023-01-30T02:57:31.526Z,1.80
2023-01-30T03:00:02.528Z,1.81
2023-01-30T03:02:32.683Z,1.84
2023-01-30T03:05:15.356Z,1.77
2023-01-30T03:07:49.776Z,1.88
2023-01-30T03:10:52.228Z,1.86
2023-01-30T03:13:49.048Z,1.83
2023-01-30T03:16:22.526Z,1.67
2023-01-30T03:18:50.170Z,1.59
2023-01-30T03:21:18.630Z,1.65
2023-01-30T03:23:46.977Z,1.69
2023-01-30T03:26:21.660Z,1.85
2023-01-30T03:28:50.780Z,1.86
2023-01-30T03:31:18.150Z,1.96
2023-01-30T03:33:45.868Z,1.93
2023-01-30T03:36:13.465Z,1.86
2023-01-30T03:38:40.657Z,1.82
2023-01-30T03:41:08.307Z,1.66
2023-01-30T03:43:35.433Z,1.70
2023-01-30T03:46:02.623Z,1.73
2023-01-30T03:48:29.828Z,1.70
2023-01-30T03:50:56.950Z,1.66
2023-01-30T03:53:24.074Z,1.66
2023-01-30T03:55:51.164Z,1.61
2023-01-30T03:58:18.203Z,1.67
2023-01-30T04:00:45.346Z,1.70
2023-01-30T04:03:12.432Z,1.76
2023-01-30T04:05:39.489Z,1.76
2023-01-30T04:08:06.553Z,1.67
2023-01-30T04:10:33.607Z,1.77
2023-01-30T04:13:00.705Z,1.81
2023-01-30T04:15:27.811Z,1.80
2023-01-30T04:17:54.953Z,1.76
2023-01-30T04:20:22.019Z,1.81
2023-01-30T04:22:49.355Z,1.96
2023-01-30T04:25:16.984Z,1.81
2023-01-30T04:27:44.565Z,1.91
2023-01-30T04:30:11.889Z,1.94
2023-01-30T04:32:39.023Z,1.99
2023-01-30T04:35:06.563Z,1.95
2023-01-30T04:37:33.664Z,3.49
2023-01-30T04:40:00.747Z,6.38
2023-01-30T04:42:36.422Z,6.74
2023-01-30T04:45:04.048Z,7.41
2023-01-30T04:47:31.598Z,9.04
2023-01-30T04:49:59.307Z,8.51
2023-01-30T04:52:27.043Z,8.89
2023-01-30T04:54:55.070Z,7.08
2023-01-30T04:57:23.284Z,7.20
2023-01-30T04:59:51.263Z,7.30
2023-01-30T05:02:19.180Z,5.39
2023-01-30T05:04:49.683Z,5.92
2023-01-30T05:07:17.618Z,6.97
2023-01-30T05:09:45.496Z,5.52
2023-01-30T05:12:13.449Z,5.22
2023-01-30T05:14:40.648Z,3.73
2023-01-30T05:17:07.885Z,3.05
2023-01-30T05:19:35.654Z,2.70
2023-01-30T05:22:02.874Z,2.45
2023-01-30T05:24:32.481Z,2.08
2023-01-30T05:26:59.591Z,2.29
2023-01-30T05:29:26.770Z,2.13
2023-01-30T05:31:53.833Z,2.03
2023-01-30T05:34:21.173Z,2.04
2023-01-30T05:36:48.580Z,2.09
2023-01-30T05:39:15.766Z,2.14
2023-01-30T05:41:42.868Z,2.05
2023-01-30T05:44:11.754Z,2.00
2023-01-30T05:46:39.849Z,1.93
2023-01-30T05:49:07.230Z,2.14
2023-01-30T05:51:34.439Z,2.04
2023-01-30T05:54:01.736Z,1.96
2023-01-30T05:56:29.107Z,2.05
2023-01-30T05:58:56.508Z,2.12
2023-01-30T06:01:23.805Z,2.16
2023-01-30T06:03:52.821Z,2.18
2023-01-30T06:06:27.205Z,2.20
2023-01-30T06:08:56.436Z,2.10
2023-01-30T06:11:23.737Z,1.96
2023-01-30T06:13:50.942Z,1.95
2023-01-30T06:16:19.286Z,1.94
2023-01-30T06:18:46.795Z,1.97
2023-01-30T06:21:15.539Z,2.02
2023-01-30T06:23:43.499Z,1.96
2023-01-30T06:26:10.609Z,2.03
2023-01-30T06:28:37.977Z,1.94
2023-01-30T06:31:08.972Z,2.05
2023-01-30T06:33:36.386Z,1.96
2023-01-30T06:36:04.121Z,2.03
2023-01-30T06:38:31.540Z,2.08
2023-01-30T06:41:00.075Z,2.14
2023-01-30T06:43:27.240Z,2.22
2023-01-30T06:45:58.171Z,2.21
2023-01-30T06:48:25.450Z,1.99
2023-01-30T06:50:52.751Z,2.00
2023-01-30T06:53:20.076Z,1.97
2023-01-30T06:55:47.296Z,2.01
2023-01-30T06:58:14.727Z,1.97
2023-01-30T07:00:43.052Z,1.95
2023-01-30T07:03:12.414Z,1.92
2023-01-30T07:05:40.756Z,2.14
2023-01-30T07:08:09.040Z,2.00
2023-01-30T07:10:36.554Z,1.85
2023-01-30T07:13:04.380Z,1.97
2023-01-30T07:15:31.800Z,1.97
2023-01-30T07:17:59.732Z,2.00
2023-01-30T07:20:27.140Z,2.00
2023-01-30T07:22:55.921Z,2.12
2023-01-30T07:25:25.729Z,2.00
2023-01-30T07:27:58.774Z,2.12
2023-01-30T07:30:28.011Z,2.14
2023-01-30T07:32:57.408Z,2.11
2023-01-30T07:35:26.149Z,2.14
2023-01-30T07:37:53.631Z,2.11
2023-01-30T07:40:22.581Z,2.19
2023-01-30T07:43:00.993Z,2.16
2023-01-30T07:45:31.683Z,2.08
2023-01-30T07:47:58.896Z,2.11
2023-01-30T07:50:26.231Z,2.24
2023-01-30T07:52:53.890Z,2.19
2023-01-30T07:55:21.404Z,2.30
2023-01-30T07:57:48.759Z,2.39
2023-01-30T08:00:17.356Z,2.44
2023-01-30T08:02:44.796Z,2.44
2023-01-30T08:05:12.123Z,2.57
2023-01-30T08:07:39.694Z,2.57
2023-01-30T08:10:07.701Z,2.60
2023-01-30T08:12:35.086Z,2.77
2023-01-30T08:15:02.290Z,2.83
2023-01-30T08:17:32.113Z,2.90
2023-01-30T08:19:59.451Z,2.91
2023-01-30T08:22:27.886Z,3.06
2023-01-30T08:24:55.129Z,2.94
2023-01-30T08:27:22.367Z,3.24
2023-01-30T08:29:49.795Z,3.09
2023-01-30T08:32:16.998Z,3.26
2023-01-30T08:34:44.247Z,3.23
2023-01-30T08:37:11.549Z,3.35
2023-01-30T08:39:38.767Z,3.25
2023-01-30T08:42:06.117Z,3.43
2023-01-30T08:44:33.400Z,3.32
2023-01-30T08:47:00.643Z,3.31
2023-01-30T08:49:28.933Z,3.39
2023-01-30T08:51:56.292Z,3.41
2023-01-30T08:54:24.367Z,3.35
2023-01-30T08:56:51.659Z,3.30
2023-01-30T08:59:18.902Z,3.39
2023-01-30T09:01:46.186Z,3.41
2023-01-30T09:04:13.471Z,3.39
2023-01-30T09:06:40.728Z,3.27
2023-01-30T09:09:10.311Z,3.12
2023-01-30T09:11:37.563Z,3.29
2023-01-30T09:14:05.988Z,3.39
2023-01-30T09:16:33.617Z,3.24
2023-01-30T09:19:00.847Z,3.30
2023-01-30T09:21:30.967Z,3.39
2023-01-30T09:23:58.197Z,3.63
2023-01-30T09:26:25.495Z,3.76
2023-01-30T09:28:53.298Z,3.76
2023-01-30T09:31:20.681Z,3.79
2023-01-30T09:33:48.371Z,4.24
2023-01-30T09:36:15.619Z,4.22
2023-01-30T09:38:42.871Z,4.41
2023-01-30T09:41:53.176Z,5.00
2023-01-30T09:44:29.519Z,5.63
2023-01-30T09:47:09.102Z,4.61
2023-01-30T09:50:08.164Z,4.81
2023-01-30T09:53:13.126Z,4.99
2023-01-30T09:55:41.668Z,4.81
2023-01-30T09:58:27.477Z,4.75
2023-01-30T10:01:06.302Z,4.76
2023-01-30T10:03:39.671Z,4.76
2023-01-30T10:06:13.555Z,4.58
2023-01-30T10:08:40.749Z,4.49
2023-01-30T10:11:11.693Z,4.61
2023-01-30T10:13:49.579Z,4.62
2023-01-30T10:16:40.926Z,4.46
2023-01-30T10:19:36.073Z,4.44
2023-01-30T10:22:25.405Z,4.51
2023-01-30T10:25:31.589Z,4.81
2023-01-30T10:28:06.037Z,4.83
2023-01-30T10:30:34.442Z,4.86
2023-01-30T10:33:15.708Z,5.09
2023-01-30T10:35:43.998Z,5.34
2023-01-30T10:38:26.901Z,5.64
2023-01-30T10:41:06.228Z,5.93
2023-01-30T10:44:01.937Z,7.71
2023-01-30T10:46:29.147Z,6.78
2023-01-30T10:49:13.664Z,6.26
2023-01-30T10:51:59.412Z,5.71
2023-01-30T10:54:39.028Z,5.51
2023-01-30T10:57:24.524Z,5.06
2023-01-30T10:59:54.872Z,4.87
2023-01-30T11:02:32.238Z,5.15
2023-01-30T11:05:04.105Z,4.81
2023-01-30T11:07:33.265Z,4.58
2023-01-30T11:10:00.872Z,4.94
2023-01-30T11:12:28.172Z,5.21
2023-01-30T11:15:02.677Z,4.87
2023-01-30T11:17:37.665Z,4.77
2023-01-30T11:20:18.869Z,4.71
2023-01-30T11:23:04.971Z,4.92
2023-01-30T11:25:48.202Z,5.04
2023-01-30T11:28:15.610Z,5.60
2023-01-30T11:30:43.474Z,5.80
2023-01-30T11:33:14.984Z,6.02
2023-01-30T11:35:52.867Z,5.52
2023-01-30T11:38:28.368Z,5.04
2023-01-30T11:41:22.446Z,5.19
2023-01-30T11:43:49.725Z,5.20
2023-01-30T11:46:21.081Z,5.33
2023-01-30T11:49:03.597Z,5.21
2023-01-30T11:51:39.060Z,5.32
2023-01-30T11:54:12.769Z,6.04
2023-01-30T11:56:45.952Z,5.58
2023-01-30T11:59:35.708Z,5.22
2023-01-30T12:02:21.160Z,5.92
2023-01-30T12:04:52.214Z,5.82
2023-01-30T12:07:34.337Z,6.46
2023-01-30T12:10:17.363Z,6.44
2023-01-30T12:12:49.256Z,6.19
2023-01-30T12:15:28.120Z,6.33
2023-01-30T12:18:13.461Z,6.46
2023-01-30T12:21:01.482Z,6.97
2023-01-30T12:23:43.391Z,7.20
2023-01-30T12:26:10.643Z,7.17
2023-01-30T12:29:00.112Z,6.41
2023-01-30T12:31:32.073Z,6.10
2023-01-30T12:34:00.038Z,5.90
2023-01-30T12:36:34.073Z,5.64
2023-01-30T12:39:28.761Z,5.47
2023-01-30T12:42:25.715Z,5.69
2023-01-30T12:45:19.489Z,5.32
2023-01-30T12:48:15.489Z,5.05
2023-01-30T12:51:07.691Z,4.98
2023-01-30T12:54:03.449Z,5.11
2023-01-30T12:56:52.213Z,4.82
2023-01-30T12:59:48.029Z,4.80
2023-01-30T13:02:33.760Z,5.15
2023-01-30T13:05:18.406Z,4.79
2023-01-30T13:08:13.322Z,4.68
2023-01-30T13:11:05.597Z,4.67
2023-01-30T13:14:00.756Z,4.60
2023-01-30T13:16:54.163Z,4.30
2023-01-30T13:19:40.319Z,4.04
2023-01-30T13:22:23.519Z,4.24
2023-01-30T13:25:03.790Z,4.38
2023-01-30T13:27:36.943Z,4.34
2023-01-30T13:30:07.887Z,4.27
2023-01-30T13:32:43.357Z,4.42
2023-01-30T13:35:35.855Z,4.26
2023-01-30T13:38:06.224Z,3.89
2023-01-30T13:40:42.356Z,4.12
2023-01-30T13:43:29.232Z,4.17
2023-01-30T13:46:01.007Z,4.12
2023-01-30T13:48:47.155Z,3.93
2023-01-30T13:51:17.624Z,4.01
2023-01-30T13:53:58.114Z,4.02
2023-01-30T13:56:42.772Z,4.12
2023-01-30T13:59:35.882Z,3.94
2023-01-30T14:02:03.208Z,3.75
2023-01-30T14:04:30.406Z,3.83
2023-01-30T14:07:23.848Z,3.49
2023-01-30T14:10:09.311Z,3.52
2023-01-30T14:12:42.047Z,3.83
2023-01-30T14:15:12.540Z,3.82
2023-01-30T14:18:07.844Z,3.26
2023-01-30T14:20:44.986Z,3.18
2023-01-30T14:23:34.825Z,3.35
2023-01-30T14:26:02.895Z,3.24
2023-01-30T14:28:30.099Z,3.12
2023-01-30T14:31:02.746Z,3.18
2023-01-30T14:33:47.461Z,3.17
2023-01-30T14:36:14.624Z,3.51
2023-01-30T14:38:42.564Z,3.29
2023-01-30T14:41:27.536Z,3.11
2023-01-30T14:43:54.863Z,3.17
2023-01-30T14:46:22.154Z,2.89
2023-01-30T14:48:49.411Z,2.91
2023-01-30T14:51:36.368Z,2.89
2023-01-30T14:54:07.690Z,2.96
2023-01-30T14:57:04.328Z,2.73
2023-01-30T14:59:39.712Z,4.40
2023-01-30T15:02:13.208Z,3.39
2023-01-30T15:05:01.724Z,2.93
2023-01-30T15:07:37.804Z,2.62
2023-01-30T15:10:38.338Z,2.57
2023-01-30T15:13:14.818Z,2.57
2023-01-30T15:16:07.210Z,2.42
2023-01-30T15:19:28.928Z,2.41
2023-01-30T15:22:34.265Z,2.63
2023-01-30T15:25:20.184Z,2.30
2023-01-30T15:28:23.236Z,2.23
2023-01-30T15:31:06.069Z,2.16
2023-01-30T15:33:33.472Z,2.24
2023-01-30T15:36:18.312Z,2.25
2023-01-30T15:38:45.717Z,2.03
2023-01-30T15:41:12.968Z,2.00
2023-01-30T15:44:14.697Z,2.28
2023-01-30T15:47:29.790Z,2.11
2023-01-30T15:50:02.886Z,2.01
2023-01-30T15:52:43.298Z,1.94
2023-01-30T15:55:31.226Z,1.99
2023-01-30T15:58:10.806Z,1.94
2023-01-30T16:00:45.739Z,2.06
2023-01-30T16:03:25.018Z,2.25
2023-01-30T16:05:54.813Z,2.18
2023-01-30T16:08:27.735Z,1.97
2023-01-30T16:10:55.323Z,1.83
2023-01-30T16:13:24.145Z,1.87
2023-01-30T16:15:57.729Z,2.00
2023-01-30T16:18:33.521Z,2.10
2023-01-30T16:21:04.723Z,2.02
2023-01-30T16:23:37.445Z,2.31
2023-01-30T16:26:09.789Z,2.17
2023-01-30T16:28:37.166Z,2.15
2023-01-30T16:31:07.490Z,2.16
2023-01-30T16:33:35.292Z,2.25
2023-01-30T16:36:26.683Z,2.14
2023-01-30T16:38:54.913Z,2.03
2023-01-30T16:41:34.393Z,1.86
2023-01-30T16:44:21.402Z,2.10
2023-01-30T16:47:09.127Z,1.96
2023-01-30T16:49:36.427Z,2.06
2023-01-30T16:52:33.241Z,2.09
2023-01-30T16:55:04.949Z,2.19
2023-01-30T16:57:45.582Z,2.39
2023-01-30T17:00:24.563Z,2.41
2023-01-30T17:02:56.782Z,2.33
2023-01-30T17:05:27.536Z,2.41
2023-01-30T17:07:57.307Z,2.28
2023-01-30T17:10:39.551Z,2.06
2023-01-30T17:13:27.548Z,2.20
2023-01-30T17:16:24.130Z,2.12
2023-01-30T17:18:54.479Z,1.84
2023-01-30T17:21:45.956Z,1.99
2023-01-30T17:24:19.468Z,2.26
2023-01-30T17:26:52.648Z,2.04
2023-01-30T17:29:23.973Z,1.98
2023-01-30T17:32:01.640Z,2.07
2023-01-30T17:34:29.030Z,1.93
2023-01-30T17:36:56.285Z,2.05
2023-01-30T17:39:24.875Z,1.99
2023-01-30T17:41:53.585Z,1.83
2023-01-30T17:44:21.015Z,1.88
2023-01-30T17:46:49.350Z,2.06
2023-01-30T17:49:21.608Z,1.89
2023-01-30T17:51:49.941Z,2.07
2023-01-30T17:54:20.660Z,3.14
2023-01-30T17:57:01.481Z,2.36
2023-01-30T17:59:29.104Z,1.92
2023-01-30T18:01:56.857Z,1.94
2023-01-30T18:04:24.311Z,1.86
2023-01-30T18:07:02.138Z,1.70
2023-01-30T18:09:29.467Z,1.71
2023-01-30T18:11:56.791Z,1.83
2023-01-30T18:14:24.501Z,1.90
2023-01-30T18:16:52.542Z,1.58
2023-01-30T18:19:19.802Z,1.65
2023-01-30T18:21:46.974Z,1.75
2023-01-30T18:24:14.434Z,1.53
2023-01-30T18:26:42.246Z,1.46
2023-01-30T18:29:09.891Z,1.34
2023-01-30T18:31:38.655Z,1.48
2023-01-30T18:34:06.750Z,1.66
2023-01-30T18:36:37.977Z,1.56
2023-01-30T18:39:05.990Z,1.53
2023-01-30T18:41:33.566Z,1.43
2023-01-30T18:44:03.944Z,1.48
2023-01-30T18:46:32.168Z,1.40
2023-01-30T18:48:59.865Z,1.34
2023-01-30T18:51:30.209Z,1.31
2023-01-30T18:53:58.143Z,1.49
2023-01-30T18:56:28.839Z,1.43
2023-01-30T18:58:56.839Z,1.58
2023-01-30T19:01:27.062Z,1.66
2023-01-30T19:04:00.480Z,1.51
2023-01-30T19:06:28.874Z,1.44
2023-01-30T19:08:57.805Z,1.41
2023-01-30T19:11:25.225Z,1.52
2023-01-30T19:13:53.401Z,1.54
2023-01-30T19:16:22.925Z,1.32
2023-01-30T19:18:50.452Z,1.45
2023-01-30T19:21:17.982Z,1.52
2023-01-30T19:23:46.474Z,1.49
2023-01-30T19:26:13.905Z,1.53
2023-01-30T19:28:41.763Z,1.26
2023-01-30T19:31:10.077Z,1.47
2023-01-30T19:33:37.690Z,1.53
2023-01-30T19:36:18.721Z,1.45
2023-01-30T19:38:47.633Z,1.44
2023-01-30T19:41:17.447Z,1.26
2023-01-30T19:43:44.715Z,1.58
2023-01-30T19:46:12.085Z,1.49
2023-01-30T19:48:40.422Z,1.46
2023-01-30T19:51:16.917Z,1.43
2023-01-30T19:53:45.583Z,1.58
2023-01-30T19:56:13.496Z,1.28
2023-01-30T19:58:41.164Z,1.29
2023-01-30T20:01:11.318Z,1.39
2023-01-30T20:03:40.200Z,1.46
2023-01-30T20:06:24.555Z,1.42
2023-01-30T20:08:57.612Z,1.41
2023-01-30T20:11:24.802Z,1.32
2023-01-30T20:13:52.277Z,1.35
2023-01-30T20:16:22.323Z,1.42
2023-01-30T20:19:13.966Z,1.48
2023-01-30T20:21:41.897Z,1.42
2023-01-30T20:24:12.052Z,1.57
2023-01-30T20:26:39.641Z,1.60
2023-01-30T20:29:08.913Z,1.41
2023-01-30T20:31:36.554Z,1.37
2023-01-30T20:34:07.920Z,1.51
2023-01-30T20:36:35.177Z,1.49
2023-01-30T20:39:02.897Z,1.40
2023-01-30T20:41:30.738Z,1.48
2023-01-30T20:43:58.078Z,1.29
2023-01-30T20:46:30.957Z,1.19
2023-01-30T20:48:59.228Z,1.20
2023-01-30T20:51:29.299Z,1.36
2023-01-30T20:53:59.802Z,1.63
2023-01-30T20:56:36.065Z,1.41
2023-01-30T20:59:05.235Z,1.34
2023-01-30T21:01:33.594Z,1.20
2023-01-30T21:04:05.776Z,1.33
2023-01-30T21:06:41.333Z,1.33
2023-01-30T21:09:18.132Z,1.38
2023-01-30T21:11:55.215Z,1.37
2023-01-30T21:14:23.299Z,1.35
2023-01-30T21:16:51.401Z,1.55
2023-01-30T21:19:18.692Z,1.51
2023-01-30T21:21:51.811Z,1.78
2023-01-30T21:24:22.158Z,1.65
2023-01-30T21:26:49.976Z,1.44
2023-01-30T21:29:19.722Z,1.43
2023-01-30T21:31:47.616Z,1.53
2023-01-30T21:34:15.243Z,1.47
2023-01-30T21:36:43.398Z,1.71
2023-01-30T21:39:13.463Z,1.58
2023-01-30T21:41:45.419Z,1.73
2023-01-30T21:44:14.562Z,1.81
2023-01-30T21:46:44.680Z,1.64
2023-01-30T21:49:12.530Z,1.63
2023-01-30T21:51:48.033Z,1.76
2023-01-30T21:54:16.857Z,1.87
2023-01-30T21:56:45.501Z,1.89
2023-01-30T21:59:12.933Z,1.80
2023-01-30T22:01:41.080Z,1.77
2023-01-30T22:04:12.122Z,1.79
2023-01-30T22:06:40.123Z,1.96
2023-01-30T22:09:07.964Z,1.84
2023-01-30T22:11:36.517Z,1.85
2023-01-30T22:14:04.219Z,2.24
2023-01-30T22:16:33.119Z,2.18
2023-01-30T22:19:03.622Z,1.99
2023-01-30T22:21:34.143Z,1.90
2023-01-30T22:24:02.990Z,2.10
2023-01-30T22:26:30.300Z,1.96
2023-01-30T22:28:59.636Z,1.98
2023-01-30T22:31:30.190Z,1.89
2023-01-30T22:33:57.662Z,1.94
2023-01-30T22:36:27.514Z,1.92
2023-01-30T22:38:55.198Z,1.90
2023-01-30T22:41:25.210Z,1.80
2023-01-30T22:43:55.141Z,1.90
2023-01-30T22:46:25.307Z,1.97
2023-01-30T22:48:53.378Z,1.89
2023-01-30T22:51:25.958Z,1.81
2023-01-30T22:53:59.333Z,1.94
2023-01-30T22:56:29.809Z,2.01
2023-01-30T22:58:57.590Z,2.09
2023-01-30T23:01:31.306Z,1.96
2023-01-30T23:04:04.368Z,2.02
2023-01-30T23:06:32.285Z,2.05
2023-01-30T23:09:00.866Z,1.97
2023-01-30T23:11:36.914Z,2.05
2023-01-30T23:14:13.167Z,2.07
2023-01-30T23:16:43.589Z,2.09
2023-01-30T23:19:13.244Z,2.14
2023-01-30T23:21:45.461Z,2.16
2023-01-30T23:24:15.635Z,2.06
2023-01-30T23:26:49.390Z,2.06
2023-01-30T23:29:19.508Z,2.02
2023-01-30T23:31:47.499Z,2.14
2023-01-30T23:34:17.629Z,1.97
2023-01-30T23:36:45.753Z,2.00
2023-01-30T23:39:14.541Z,2.05
2023-01-30T23:41:42.618Z,1.98
2023-01-30T23:44:10.651Z,2.15
2023-01-30T23:46:40.576Z,2.08
2023-01-30T23:49:15.019Z,2.24
2023-01-30T23:51:44.518Z,2.17
2023-01-30T23:54:13.585Z,2.64
2023-01-30T23:56:43.020Z,2.52
2023-01-30T23:59:11.211Z,2.33
